KHFD

Hartford-Brainard Airport

Airport
ICAO code
KHFD
IATA Code
HFD
Summary
ICAO Region
NAM
ICAO Territory
Location

Hartford, Connecticut

Serving
Hartford
Elevation
18 ft
Coordinates
41° 44' 12" N , 72° 38' 58" W
KCC
Metar
KHFD 142253Z 03006KT 10SM -RA BKN065 11/09 A2968 RMK AO2 SLP049 P0001 T01110089

Hartford-Brainard Airport is a public and designated reliever airport located 3 nm southeast of downtown Hartford, in Hartford County, Connecticut, USA.

Airport map

Aerial View

SKYbrary Partners:

Safety knowledge contributed by: